Terminal Aerodrome Forecast
Issued by NWS

Home | Current Version | Previous Version | Graphics & Text | Print | Product List | Glossary Off
Versions: 1 2 3 4 5 6 7 8 9 10 11 12 13 14 15 16 17 18 19 20 21

000
FTUS43 KMPX 301128
TAFRNH
TAF
KRNH 301128Z 3012/0112 06005KT 3SM BR SCT002
      TEMPO 3012/3014 1SM BR BKN002
     FM301400 06006KT P6SM SKC
     FM301900 06005KT P6SM SCT030 BKN050=

USA.gov is the U.S. government's official web portal to all federal, state and local government web resources and services.